Time;durP1;ratioP1;P1;durP2;ratioP2;P2;SDS_P1;SDS_P2;PMS_P1;PMS_P2;Temp;Humidity;BMP_temperature;BMP_pressure;BME280_temperature;BME280_humidity;BME280_pressure;Samples;Min_cycle;Max_cycle;Signal;HPM_P1;HPM_P2
2021/08/15 00:01:50;;;;;;;;;;;;;;;17.45;64.85;96932.84;5073281;28;19912;-61
2021/08/15 00:04:16;;;;;;;;;;;;;;;17.45;64.75;96932.84;5073311;28;19986;-60
2021/08/15 00:06:41;;;;;;;;;;;;;;;17.40;64.86;96925.19;5073265;28;20002;-60
2021/08/15 00:09:07;;;;;;;;;;;;;;;17.33;64.71;96923.84;5073260;28;20358;-60
2021/08/15 00:11:32;;;;;;;;;;;;;;;17.19;65.56;96922.88;5055250;28;19912;-60
2021/08/15 00:13:58;;;;;;;;;;;;;;;17.15;65.60;96929.25;5073163;28;19919;-61
2021/08/15 00:16:23;;;;;;;;;;;;;;;17.18;65.15;96931.72;5073222;28;20007;-61
2021/08/15 00:18:48;;;;;;;;;;;;;;;17.22;65.24;96937.69;5073207;28;20366;-60
2021/08/15 00:21:14;;;;;;;;;;;;;;;17.21;65.94;96938.63;5073197;28;19920;-60
2021/08/15 00:23:40;;;;;;;;;;;;;;;17.23;65.68;96934.97;5073024;28;19912;-60
2021/08/15 00:26:05;;;;;;;;;;;;;;;17.12;65.50;96932.94;5073854;28;19912;-60
2021/08/15 00:28:30;;;;;;;;;;;;;;;17.13;65.33;96931.16;5076891;28;19913;-60
2021/08/15 00:30:56;;;;;;;;;;;;;;;17.12;65.38;96932.94;5076945;28;20332;-61
2021/08/15 00:33:21;;;;;;;;;;;;;;;17.12;65.65;96918.88;5076907;28;19919;-61
2021/08/15 00:35:47;;;;;;;;;;;;;;;17.10;65.62;96918.94;5076776;28;19913;-60
2021/08/15 00:38:12;;;;;;;;;;;;;;;17.05;65.49;96910.44;5076574;28;19915;-59
2021/08/15 00:40:38;;;;;;;;;;;;;;;17.01;65.77;96911.56;5076785;28;20318;-60
2021/08/15 00:43:03;;;;;;;;;;;;;;;16.95;65.67;96911.91;5076744;28;19913;-61
2021/08/15 00:45:28;;;;;;;;;;;;;;;16.98;65.80;96915.19;5076482;28;19921;-61
2021/08/15 00:47:54;;;;;;;;;;;;;;;17.00;66.30;96905.41;5076453;28;19919;-59
2021/08/15 00:50:19;;;;;;;;;;;;;;;17.07;66.02;96907.72;5076631;28;20003;-59
2021/08/15 00:52:45;;;;;;;;;;;;;;;17.03;65.95;96907.00;5076442;28;19915;-60
2021/08/15 00:55:11;;;;;;;;;;;;;;;16.97;65.83;96910.00;5076500;28;19912;-61
2021/08/15 00:57:39;;;;;;;;;;;;;;;16.91;65.98;96912.06;5076445;28;19916;-59
2021/08/15 01:00:08;;;;;;;;;;;;;;;16.87;66.55;96909.69;5076231;28;19916;-61
2021/08/15 01:02:34;;;;;;;;;;;;;;;16.83;65.75;96900.25;5076293;28;19986;-59
2021/08/15 01:05:00;;;;;;;;;;;;;;;16.78;65.88;96901.38;5076342;28;19912;-59
2021/08/15 01:07:26;;;;;;;;;;;;;;;16.74;66.21;96904.28;5076186;28;19913;-60
2021/08/15 01:09:51;;;;;;;;;;;;;;;16.72;66.53;96901.72;5075079;28;19927;-59
2021/08/15 01:12:17;;;;;;;;;;;;;;;16.76;66.70;96895.31;5076138;28;19924;-60
2021/08/15 01:14:43;;;;;;;;;;;;;;;16.82;66.34;96899.41;5076107;28;19966;-60
2021/08/15 01:17:08;;;;;;;;;;;;;;;16.79;66.28;96904.84;5076054;28;19916;-59
2021/08/15 01:19:34;;;;;;;;;;;;;;;16.77;66.53;96898.81;5076087;28;19912;-60
2021/08/15 01:21:59;;;;;;;;;;;;;;;16.78;66.29;96898.75;5075944;28;19912;-59
2021/08/15 01:24:26;;;;;;;;;;;;;;;16.75;65.87;96893.63;5075865;28;19921;-59
2021/08/15 01:26:53;;;;;;;;;;;;;;;16.71;65.76;96893.88;5075894;28;19913;-59
2021/08/15 01:29:19;;;;;;;;;;;;;;;16.68;66.22;96894.94;5075939;28;19912;-61
2021/08/15 01:31:45;;;;;;;;;;;;;;;16.66;66.01;96900.28;5075871;28;20343;-59
2021/08/15 01:34:10;;;;;;;;;;;;;;;16.72;65.99;96900.88;5075731;28;19916;-60
2021/08/15 01:36:36;;;;;;;;;;;;;;;16.73;65.74;96890.22;5075302;28;19913;-59
2021/08/15 01:39:01;;;;;;;;;;;;;;;16.78;66.03;96895.22;5075548;28;19912;-60
2021/08/15 01:41:27;;;;;;;;;;;;;;;16.78;65.85;96895.22;5075818;28;19966;-61
2021/08/15 01:43:57;;;;;;;;;;;;;;;16.82;65.78;96895.94;5075704;28;19913;-59
2021/08/15 01:46:24;;;;;;;;;;;;;;;16.80;65.26;96896.00;5075356;28;19916;-61
2021/08/15 01:48:50;;;;;;;;;;;;;;;16.73;65.53;96900.78;5075437;28;19912;-60
2021/08/15 01:51:16;;;;;;;;;;;;;;;16.67;65.68;96896.72;5075434;28;19966;-61
2021/08/15 01:53:41;;;;;;;;;;;;;;;16.62;65.72;96900.56;5075492;28;20389;-59
2021/08/15 01:56:07;;;;;;;;;;;;;;;16.64;66.10;96896.00;5075403;28;19913;-59
2021/08/15 01:58:32;;;;;;;;;;;;;;;16.61;65.46;96891.78;5075237;28;20294;-60
2021/08/15 02:00:58;;;;;;;;;;;;;;;16.57;65.64;96894.66;5075245;28;19919;-60
2021/08/15 02:03:23;;;;;;;;;;;;;;;16.50;65.92;96902.94;5075290;28;19924;-60
2021/08/15 02:05:48;;;;;;;;;;;;;;;16.44;66.69;96899.78;5075076;28;20007;-60
2021/08/15 02:08:14;;;;;;;;;;;;;;;16.41;67.16;96898.19;5075135;28;20027;-59
2021/08/15 02:10:39;;;;;;;;;;;;;;;16.41;67.16;96898.19;5075035;28;20015;-61
2021/08/15 02:13:05;;;;;;;;;;;;;;;16.41;67.60;96899.03;5075202;28;19916;-59
2021/08/15 02:15:31;;;;;;;;;;;;;;;16.41;67.73;96893.75;5074897;28;19912;-59
2021/08/15 02:17:58;;;;;;;;;;;;;;;16.42;67.08;96892.81;5075092;28;19922;-59
2021/08/15 02:20:23;;;;;;;;;;;;;;;16.41;66.76;96893.75;5074987;28;20432;-60
2021/08/15 02:22:49;;;;;;;;;;;;;;;16.46;66.50;96893.47;5074785;28;19913;-61
2021/08/15 02:25:15;;;;;;;;;;;;;;;16.47;66.16;96903.13;5074703;28;20446;-61
2021/08/15 02:27:41;;;;;;;;;;;;;;;16.38;66.58;96896.56;5074649;28;19912;-60
2021/08/15 02:30:08;;;;;;;;;;;;;;;16.32;66.82;96890.78;5074676;28;19962;-61
2021/08/15 02:32:34;;;;;;;;;;;;;;;16.16;67.08;96895.13;5074509;28;19920;-60
2021/08/15 02:34:59;;;;;;;;;;;;;;;16.09;68.16;96887.63;5074572;28;19912;-60
2021/08/15 02:37:24;;;;;;;;;;;;;;;16.12;68.58;96893.59;5074576;28;19919;-59
2021/08/15 02:39:51;;;;;;;;;;;;;;;16.01;69.48;96894.16;5074530;28;20017;-59
2021/08/15 02:42:17;;;;;;;;;;;;;;;15.95;69.66;96877.81;5074454;28;20362;-59
2021/08/15 02:44:42;;;;;;;;;;;;;;;15.92;68.70;96881.44;5074216;28;19917;-59
2021/08/15 02:47:08;;;;;;;;;;;;;;;15.76;71.14;96882.28;5074291;28;19981;-60
2021/08/15 02:49:34;;;;;;;;;;;;;;;15.71;72.31;96875.56;5073540;28;19955;-59
2021/08/15 02:51:59;;;;;;;;;;;;;;;15.78;69.60;96885.66;5074378;28;19913;-60
2021/08/15 02:54:24;;;;;;;;;;;;;;;15.57;72.97;96879.78;5074236;28;19916;-61
2021/08/15 02:56:50;;;;;;;;;;;;;;;15.56;72.67;96885.97;5074130;28;19938;-60
2021/08/15 02:59:15;;;;;;;;;;;;;;;15.62;70.74;96887.44;5074116;28;19919;-60
2021/08/15 03:01:40;;;;;;;;;;;;;;;15.59;73.55;96884.97;5074053;28;19944;-59
2021/08/15 03:04:06;;;;;;;;;;;;;;;15.58;72.35;96888.53;5074032;28;19912;-60
2021/08/15 03:06:31;;;;;;;;;;;;;;;15.67;72.02;96882.78;5073950;28;20259;-60
2021/08/15 03:08:57;;;;;;;;;;;;;;;15.75;70.61;96885.00;5073860;28;19924;-59
2021/08/15 03:11:22;;;;;;;;;;;;;;;15.83;70.28;96881.97;5073835;28;19912;-61
2021/08/15 03:13:47;;;;;;;;;;;;;;;15.85;69.64;96880.94;5073809;28;20013;-61
2021/08/15 03:16:13;;;;;;;;;;;;;;;15.94;68.83;96873.44;5073845;28;19919;-59
2021/08/15 03:18:38;;;;;;;;;;;;;;;15.95;68.89;96877.81;5073844;28;19917;-61
2021/08/15 03:21:04;;;;;;;;;;;;;;;16.02;69.13;96887.13;5073832;28;19913;-60
2021/08/15 03:23:29;;;;;;;;;;;;;;;16.03;68.55;96884.41;5073640;28;19956;-60
2021/08/15 03:25:54;;;;;;;;;;;;;;;16.10;68.44;96882.25;5073681;28;20000;-59
2021/08/15 03:28:20;;;;;;;;;;;;;;;16.08;68.53;96885.91;5073585;28;19912;-60
2021/08/15 03:30:45;;;;;;;;;;;;;;;16.03;68.47;96883.53;5073658;28;19913;-61
2021/08/15 03:33:11;;;;;;;;;;;;;;;16.02;68.46;96885.31;5073636;28;19974;-59
2021/08/15 03:35:36;;;;;;;;;;;;;;;16.06;68.44;96887.78;5073576;28;20378;-59
2021/08/15 03:38:01;;;;;;;;;;;;;;;16.15;68.48;96889.91;5073582;28;20274;-61
2021/08/15 03:40:27;;;;;;;;;;;;;;;16.21;68.53;96891.38;5073590;28;20301;-61
2021/08/15 03:42:52;;;;;;;;;;;;;;;16.24;67.98;96886.78;5073515;28;20011;-59
2021/08/15 03:45:18;;;;;;;;;;;;;;;16.23;67.38;96884.22;5073142;28;19916;-61
2021/08/15 03:47:43;;;;;;;;;;;;;;;16.23;67.18;96892.16;5073315;28;19913;-59
2021/08/15 03:50:09;;;;;;;;;;;;;;;16.18;67.45;96887.13;5073434;28;20366;-60
2021/08/15 03:52:41;;;;;;;;;;;;;;;16.16;67.77;96884.56;5073439;28;19912;-60
2021/08/15 03:55:07;;;;;;;;;;;;;;;16.23;68.08;96887.72;5073538;28;19961;-60
2021/08/15 03:57:33;;;;;;;;;;;;;;;16.34;67.72;96886.28;5073278;28;19913;-61
2021/08/15 03:59:59;;;;;;;;;;;;;;;16.42;67.33;96897.25;5073914;28;19912;-59
2021/08/15 04:02:24;;;;;;;;;;;;;;;16.62;67.43;96893.47;5077560;28;19919;-59
2021/08/15 04:04:49;;;;;;;;;;;;;;;17.08;66.58;96891.78;5077442;28;20388;-61
2021/08/15 04:07:15;;;;;;;;;;;;;;;17.66;64.88;96894.50;5077351;28;19913;-59
2021/08/15 04:09:40;;;;;;;;;;;;;;;18.12;64.00;96889.13;5077324;28;19913;-60
2021/08/15 04:12:05;;;;;;;;;;;;;;;18.57;62.13;96891.53;5077377;28;19912;-61
2021/08/15 04:14:31;;;;;;;;;;;;;;;18.87;60.79;96893.13;5077324;28;19916;-60
2021/08/15 04:16:56;;;;;;;;;;;;;;;19.17;59.80;96892.06;5077306;28;19916;-61
2021/08/15 04:19:22;;;;;;;;;;;;;;;19.49;58.48;96889.97;5077243;28;19912;-60
2021/08/15 04:21:47;;;;;;;;;;;;;;;19.85;57.42;96896.34;5077180;28;19934;-61
2021/08/15 04:24:13;;;;;;;;;;;;;;;20.16;57.01;96888.88;5077144;28;19935;-60
2021/08/15 04:26:38;;;;;;;;;;;;;;;20.43;57.04;96892.28;5077170;28;19920;-62
2021/08/15 04:29:04;;;;;;;;;;;;;;;20.71;56.41;96893.78;5077118;28;19973;-61
2021/08/15 04:31:29;;;;;;;;;;;;;;;21.09;56.18;96888.41;5076949;28;19938;-60
2021/08/15 04:33:55;;;;;;;;;;;;;;;21.41;55.43;96894.88;5076907;28;20003;-61
2021/08/15 04:36:20;;;;;;;;;;;;;;;21.73;53.38;96882.72;5076881;28;19920;-60
2021/08/15 04:38:46;;;;;;;;;;;;;;;22.07;53.44;96888.06;5076784;28;19912;-60
2021/08/15 04:41:11;;;;;;;;;;;;;;;22.39;53.53;96883.78;5076915;28;20281;-61
2021/08/15 04:43:36;;;;;;;;;;;;;;;22.62;53.61;96881.94;5076725;28;20328;-60
2021/08/15 04:46:02;;;;;;;;;;;;;;;22.93;52.90;96882.06;5076470;28;20003;-61
2021/08/15 04:48:28;;;;;;;;;;;;;;;23.18;52.71;96882.66;5076557;28;19912;-61
2021/08/15 04:50:53;;;;;;;;;;;;;;;23.38;52.52;96885.50;5076588;28;19934;-61
2021/08/15 04:53:19;;;;;;;;;;;;;;;23.73;52.10;96880.78;5076531;28;20352;-62
2021/08/15 04:55:44;;;;;;;;;;;;;;;24.17;51.16;96877.88;5076537;28;19919;-61
2021/08/15 04:58:10;;;;;;;;;;;;;;;24.45;51.19;96886.13;5076493;28;20274;-61
2021/08/15 05:00:35;;;;;;;;;;;;;;;24.81;50.03;96879.41;5076240;28;20027;-60
2021/08/15 05:03:01;;;;;;;;;;;;;;;25.14;49.07;96889.84;5076463;28;19916;-60
2021/08/15 05:05:26;;;;;;;;;;;;;;;25.44;48.12;96886.16;5075103;28;19970;-61
2021/08/15 05:07:52;;;;;;;;;;;;;;;25.80;47.80;96887.34;5075021;28;19919;-61
2021/08/15 05:10:17;;;;;;;;;;;;;;;26.08;47.34;96888.22;5076200;28;20374;-60
2021/08/15 05:12:42;;;;;;;;;;;;;;;26.42;46.54;96883.25;5075345;28;19919;-62
2021/08/15 05:15:08;;;;;;;;;;;;;;;26.77;46.27;96889.69;5076096;28;20014;-61
2021/08/15 05:17:34;;;;;;;;;;;;;;;27.10;45.20;96894.53;5076165;28;19919;-61
2021/08/15 05:19:59;;;;;;;;;;;;;;;27.36;44.27;96899.09;5058106;28;19916;-61
2021/08/15 05:22:25;;;;;;;;;;;;;;;27.60;43.41;96900.28;5076007;28;19960;-62
2021/08/15 05:24:50;;;;;;;;;;;;;;;27.91;43.75;96896.28;5075988;28;19952;-59
2021/08/15 05:27:16;;;;;;;;;;;;;;;28.17;43.25;96896.22;5076077;28;19966;-61
2021/08/15 05:29:41;;;;;;;;;;;;;;;28.50;42.34;96900.91;5076003;28;19912;-60
2021/08/15 05:32:07;;;;;;;;;;;;;;;28.71;41.70;96892.41;5075846;28;19916;-60
2021/08/15 05:34:32;;;;;;;;;;;;;;;28.94;40.58;96896.31;5075756;28;19919;-61
2021/08/15 05:36:57;;;;;;;;;;;;;;;29.16;41.30;96894.81;5075690;28;19912;-61
2021/08/15 05:39:23;;;;;;;;;;;;;;;29.33;40.40;96897.50;5075765;28;19913;-60
2021/08/15 05:41:48;;;;;;;;;;;;;;;29.56;39.73;96897.72;5075885;28;19919;-59
2021/08/15 05:44:14;;;;;;;;;;;;;;;29.77;38.64;96893.63;5075485;28;20411;-62
2021/08/15 05:46:39;;;;;;;;;;;;;;;29.91;38.77;96892.06;5075431;28;19916;-62
2021/08/15 05:49:05;;;;;;;;;;;;;;;30.03;38.40;96892.53;5075627;28;19913;-62
2021/08/15 05:51:31;;;;;;;;;;;;;;;30.19;37.86;96894.34;5075531;28;20278;-61
2021/08/15 05:53:56;;;;;;;;;;;;;;;30.17;38.30;96892.84;5075447;28;19916;-59
2021/08/15 05:56:22;;;;;;;;;;;;;;;29.95;38.01;96895.25;5075335;28;19919;-61
2021/08/15 05:58:47;;;;;;;;;;;;;;;30.08;39.47;96902.78;5075285;28;19912;-60
2021/08/15 06:01:13;;;;;;;;;;;;;;;30.27;38.32;96899.72;5075365;28;19919;-60
2021/08/15 06:03:38;;;;;;;;;;;;;;;30.49;37.57;96899.94;5075288;28;19916;-62
2021/08/15 06:06:05;;;;;;;;;;;;;;;30.54;37.91;96893.16;5075201;28;19912;-62
2021/08/15 06:08:30;;;;;;;;;;;;;;;30.58;39.61;96894.50;5075076;28;19958;-62
2021/08/15 06:10:56;;;;;;;;;;;;;;;30.79;39.05;96885.78;5075014;28;19916;-61
2021/08/15 06:13:22;;;;;;;;;;;;;;;30.95;36.73;96884.00;5075054;28;19916;-62
2021/08/15 06:15:47;;;;;;;;;;;;;;;31.17;35.14;96878.75;5074922;28;19913;-61
2021/08/15 06:18:13;;;;;;;;;;;;;;;31.34;34.76;96877.63;5074990;28;19916;-62
2021/08/15 06:20:39;;;;;;;;;;;;;;;31.51;33.59;96874.78;5074806;28;19912;-62
2021/08/15 06:23:04;;;;;;;;;;;;;;;31.47;34.25;96870.78;5074743;28;19958;-62
2021/08/15 06:25:30;;;;;;;;;;;;;;;31.65;33.51;96879.38;5074897;28;19954;-61
2021/08/15 06:27:55;;;;;;;;;;;;;;;31.74;33.28;96874.72;5074604;28;20354;-62
2021/08/15 06:30:23;;;;;;;;;;;;;;;31.80;33.40;96877.69;5074845;28;19912;-60
2021/08/15 06:32:50;;;;;;;;;;;;;;;31.92;32.94;96875.38;5074696;28;19919;-61
2021/08/15 06:35:17;;;;;;;;;;;;;;;31.47;33.91;96870.78;5074601;28;20372;-61
2021/08/15 06:37:42;;;;;;;;;;;;;;;31.55;34.44;96870.72;5074461;28;19918;-61
2021/08/15 06:40:08;;;;;;;;;;;;;;;31.69;33.08;96862.78;5074433;28;19912;-61
2021/08/15 06:42:33;;;;;;;;;;;;;;;31.97;32.47;96862.16;5074539;28;19952;-61
2021/08/15 06:44:59;;;;;;;;;;;;;;;32.08;32.32;96867.09;5074279;28;20276;-63
2021/08/15 06:47:25;;;;;;;;;;;;;;;32.25;32.39;96875.84;5056432;28;19916;-62
2021/08/15 06:49:50;;;;;;;;;;;;;;;32.37;32.05;96875.34;5074198;28;19919;-62
2021/08/15 06:52:16;;;;;;;;;;;;;;;32.20;32.07;96861.22;5074333;28;19916;-62
2021/08/15 06:54:41;;;;;;;;;;;;;;;32.24;31.45;96866.03;5074314;28;20370;-62
2021/08/15 06:57:07;;;;;;;;;;;;;;;32.22;31.87;96870.81;5074241;28;19912;-61
2021/08/15 06:59:32;;;;;;;;;;;;;;;32.34;30.18;96870.31;5074152;28;19912;-61
2021/08/15 07:01:58;;;;;;;;;;;;;;;32.36;31.52;96871.81;5074096;28;19935;-60
2021/08/15 07:04:24;;;;;;;;;;;;;;;32.17;31.70;96873.25;5074092;28;20010;-62
2021/08/15 07:06:50;;;;;;;;;;;;;;;32.10;31.84;96867.75;5073868;28;19920;-62
2021/08/15 07:09:16;;;;;;;;;;;;;;;32.13;31.53;96861.13;5073891;28;19919;-61
2021/08/15 07:11:41;;;;;;;;;;;;;;;32.30;31.68;96861.75;5073818;28;19999;-62
2021/08/15 07:14:07;;;;;;;;;;;;;;;32.26;31.83;96865.84;5073700;28;20401;-59
2021/08/15 07:16:33;;;;;;;;;;;;;;;32.56;30.45;96863.13;5073743;28;19919;-61
2021/08/15 07:18:58;;;;;;;;;;;;;;;32.72;30.14;96856.63;5073858;28;19912;-62
2021/08/15 07:21:24;;;;;;;;;;;;;;;33.00;30.27;96857.72;5073862;28;20278;-60
2021/08/15 07:23:49;;;;;;;;;;;;;;;32.98;30.36;96857.91;5073897;28;19916;-61
2021/08/15 07:26:15;;;;;;;;;;;;;;;32.46;30.20;96858.00;5073767;28;19966;-62
2021/08/15 07:28:40;;;;;;;;;;;;;;;32.35;29.82;96856.59;5073519;28;19991;-61
2021/08/15 07:31:06;;;;;;;;;;;;;;;32.22;31.14;96853.75;5073608;28;19923;-60
2021/08/15 07:33:31;;;;;;;;;;;;;;;32.54;30.46;96851.66;5073630;28;19979;-60
2021/08/15 07:35:56;;;;;;;;;;;;;;;32.75;29.83;96856.22;5073270;28;19917;-62
2021/08/15 07:38:23;;;;;;;;;;;;;;;32.81;30.61;96848.38;5073593;28;19908;-60
2021/08/15 07:40:49;;;;;;;;;;;;;;;32.97;30.47;96852.69;5073467;28;20389;-63
2021/08/15 07:43:14;;;;;;;;;;;;;;;33.25;29.83;96854.63;5073579;28;19951;-62
2021/08/15 07:45:39;;;;;;;;;;;;;;;33.10;29.85;96844.72;5073354;28;19916;-60
2021/08/15 07:48:05;;;;;;;;;;;;;;;33.29;29.05;96847.81;5073364;28;20278;-60
2021/08/15 07:50:36;;;;;;;;;;;;;;;33.55;26.77;96849.00;5073453;28;19912;-61
2021/08/15 07:53:15;;;;;;;;;;;;;;;33.05;26.75;96838.22;5073536;28;19920;-61
2021/08/15 07:55:40;;;;;;;;;;;;;;;32.62;28.78;96840.69;5073427;28;19998;-60
2021/08/15 07:58:05;;;;;;;;;;;;;;;32.24;28.53;96838.16;5073374;28;20401;-61
2021/08/15 08:00:31;;;;;;;;;;;;;;;32.35;29.21;96847.66;5073474;28;20050;-61
2021/08/15 08:02:56;;;;;;;;;;;;;;;32.52;29.69;96834.75;5073228;28;19919;-61
2021/08/15 08:05:22;;;;;;;;;;;;;;;32.38;28.45;96840.00;5073377;28;20003;-62
2021/08/15 08:07:47;;;;;;;;;;;;;;;32.24;29.01;96839.00;5073143;28;19919;-60
2021/08/15 08:10:13;;;;;;;;;;;;;;;32.32;28.70;96831.81;5073288;28;19913;-61
2021/08/15 08:12:39;;;;;;;;;;;;;;;32.58;28.57;96828.59;5073178;28;19924;-62
2021/08/15 08:15:05;;;;;;;;;;;;;;;32.67;29.59;96832.00;5072978;28;19912;-61
2021/08/15 08:17:30;;;;;;;;;;;;;;;33.03;28.22;96838.38;5073199;28;19987;-61
2021/08/15 08:19:56;;;;;;;;;;;;;;;33.01;29.24;96835.00;5073247;28;19912;-60
2021/08/15 08:22:21;;;;;;;;;;;;;;;32.88;29.12;96825.75;5073123;28;19916;-60
2021/08/15 08:24:47;;;;;;;;;;;;;;;32.59;27.29;96832.97;5073051;28;19940;-60
2021/08/15 08:27:12;;;;;;;;;;;;;;;32.13;28.94;96825.97;5072965;28;19968;-60
2021/08/15 08:29:38;;;;;;;;;;;;;;;32.11;28.42;96826.16;5073032;28;19967;-61
2021/08/15 08:32:04;;;;;;;;;;;;;;;32.25;28.62;96819.03;5073233;28;19916;-60
2021/08/15 08:34:29;;;;;;;;;;;;;;;32.41;28.76;96819.81;5072949;28;20274;-59
2021/08/15 08:36:54;;;;;;;;;;;;;;;32.11;28.50;96820.75;5072995;28;19912;-61
2021/08/15 08:39:20;;;;;;;;;;;;;;;31.94;30.06;96822.84;5072963;28;19913;-59
2021/08/15 08:41:46;;;;;;;;;;;;;;;32.14;29.31;96823.06;5073017;28;19951;-62
2021/08/15 08:44:12;;;;;;;;;;;;;;;31.85;29.05;96815.81;5072955;28;19956;-60
2021/08/15 08:46:38;;;;;;;;;;;;;;;31.70;30.54;96811.25;5072627;28;19917;-61
2021/08/15 08:49:04;;;;;;;;;;;;;;;32.04;29.90;96819.81;5076772;28;19913;-59
2021/08/15 08:51:30;;;;;;;;;;;;;;;32.11;28.66;96809.09;5076489;28;20007;-61
2021/08/15 08:53:56;;;;;;;;;;;;;;;31.98;29.29;96816.00;5076564;28;19913;-62
2021/08/15 08:56:22;;;;;;;;;;;;;;;31.72;29.19;96808.38;5076465;28;19937;-60
2021/08/15 08:58:49;;;;;;;;;;;;;;;31.52;30.02;96809.75;5076425;28;20281;-60
2021/08/15 09:01:15;;;;;;;;;;;;;;;31.55;31.50;96805.84;5076399;28;19916;-61
2021/08/15 09:03:40;;;;;;;;;;;;;;;31.74;31.50;96798.19;5076272;28;19913;-60
2021/08/15 09:06:17;;;;;;;;;;;;;;;32.09;31.38;96803.03;5076329;28;20001;-60
2021/08/15 09:08:43;;;;;;;;;;;;;;;32.34;30.57;96790.00;5076335;28;19912;-62
2021/08/15 09:11:12;;;;;;;;;;;;;;;32.64;31.51;96800.75;5076320;28;19935;-62
2021/08/15 09:13:38;;;;;;;;;;;;;;;32.72;29.64;96799.75;5076193;28;20282;-62
2021/08/15 09:16:04;;;;;;;;;;;;;;;32.97;29.79;96802.09;5058095;28;19920;-61
2021/08/15 09:18:30;;;;;;;;;;;;;;;32.51;29.05;96801.44;5075995;28;19912;-60
2021/08/15 09:20:55;;;;;;;;;;;;;;;32.25;30.66;96796.56;5075990;28;19916;-59
2021/08/15 09:23:21;;;;;;;;;;;;;;;32.33;29.65;96801.00;5075991;28;19920;-62
2021/08/15 09:25:46;;;;;;;;;;;;;;;32.59;30.55;96783.44;5075943;28;19982;-62
2021/08/15 09:28:13;;;;;;;;;;;;;;;32.56;30.55;96784.63;5075793;28;19955;-61
2021/08/15 09:30:39;;;;;;;;;;;;;;;32.80;28.90;96787.16;5076056;28;19912;-61
2021/08/15 09:33:09;;;;;;;;;;;;;;;32.46;28.57;96784.06;5075797;28;20258;-60
2021/08/15 09:35:37;;;;;;;;;;;;;;;32.43;29.45;96781.75;5075856;28;19912;-60
2021/08/15 09:38:02;;;;;;;;;;;;;;;32.58;29.91;96779.03;5075812;28;19944;-60
2021/08/15 09:40:32;;;;;;;;;;;;;;;32.68;29.38;96782.25;5075785;28;19920;-59
2021/08/15 09:42:59;;;;;;;;;;;;;;;32.38;29.47;96777.75;5075780;28;19958;-62
2021/08/15 09:45:31;;;;;;;;;;;;;;;32.64;29.73;96770.13;5075297;28;19923;-60
2021/08/15 09:47:57;;;;;;;;;;;;;;;32.88;29.45;96770.75;5075462;28;19912;-60
2021/08/15 09:50:23;;;;;;;;;;;;;;;33.00;28.95;96762.94;5075379;28;20010;-61
2021/08/15 09:52:50;;;;;;;;;;;;;;;33.05;28.94;96765.09;5075404;28;20333;-60
2021/08/15 09:55:16;;;;;;;;;;;;;;;33.12;29.04;96764.13;5075458;28;19966;-62
2021/08/15 09:57:42;;;;;;;;;;;;;;;33.21;28.82;96755.81;5075062;28;19912;-59
2021/08/15 10:00:16;;;;;;;;;;;;;;;33.19;27.97;96756.00;5075305;28;19913;-59
2021/08/15 10:02:42;;;;;;;;;;;;;;;33.05;28.69;96756.97;5075280;28;19919;-61
2021/08/15 10:05:07;;;;;;;;;;;;;;;32.68;28.20;96751.66;5075170;28;19912;-60
2021/08/15 10:07:33;;;;;;;;;;;;;;;32.17;28.74;96745.28;5075000;28;19974;-62
2021/08/15 10:10:00;;;;;;;;;;;;;;;31.81;30.16;96734.22;5074890;28;20116;-60
2021/08/15 10:12:25;;;;;;;;;;;;;;;31.58;30.20;96734.38;5075034;28;19998;-59
2021/08/15 10:14:50;;;;;;;;;;;;;;;31.54;30.68;96733.06;5074977;28;20398;-61
2021/08/15 10:17:17;;;;;;;;;;;;;;;31.91;30.26;96733.94;5074950;28;19912;-61
2021/08/15 10:19:57;;;;;;;;;;;;;;;32.17;30.70;96729.88;5074984;28;19912;-61
2021/08/15 10:22:25;;;;;;;;;;;;;;;32.45;29.77;96723.72;5074973;28;20380;-60
2021/08/15 10:24:54;;;;;;;;;;;;;;;32.43;29.51;96722.22;5074973;28;20285;-60
2021/08/15 10:27:38;;;;;;;;;;;;;;;32.31;29.75;96722.75;5074600;28;19938;-60
2021/08/15 10:30:24;;;;;;;;;;;;;;;32.43;30.01;96717.66;5074654;28;19974;-60
2021/08/15 10:32:56;;;;;;;;;;;;;;;32.51;30.53;96704.00;5074715;28;19916;-60
2021/08/15 10:35:41;;;;;;;;;;;;;;;32.69;29.84;96713.56;5074708;28;19944;-60
2021/08/15 10:38:08;;;;;;;;;;;;;;;33.05;29.17;96708.22;5074420;28;19912;-62
2021/08/15 10:40:45;;;;;;;;;;;;;;;33.09;28.36;96702.19;5074591;28;19951;-62
2021/08/15 10:43:13;;;;;;;;;;;;;;;32.72;28.81;96696.06;5074584;28;20015;-60
2021/08/15 10:45:39;;;;;;;;;;;;;;;32.88;29.16;96700.34;5074240;28;19916;-60
2021/08/15 10:48:04;;;;;;;;;;;;;;;33.20;29.16;96698.06;5074467;28;20377;-62
2021/08/15 10:50:42;;;;;;;;;;;;;;;33.49;28.36;96704.28;5074369;28;19947;-60
2021/08/15 10:53:26;;;;;;;;;;;;;;;33.36;27.71;96690.69;5074184;28;20022;-61
2021/08/15 10:55:59;;;;;;;;;;;;;;;33.18;28.03;96685.78;5074240;28;20282;-60
2021/08/15 10:58:40;;;;;;;;;;;;;;;33.03;28.35;96684.00;5074130;28;19913;-61
2021/08/15 11:01:09;;;;;;;;;;;;;;;33.08;29.18;96683.44;5074203;28;20437;-62
2021/08/15 11:03:35;;;;;;;;;;;;;;;32.95;28.34;96682.28;5074000;28;19913;-61
2021/08/15 11:06:02;;;;;;;;;;;;;;;32.87;28.87;96680.56;5074032;28;19920;-59
2021/08/15 11:08:33;;;;;;;;;;;;;;;32.58;27.81;96670.75;5073934;28;19916;-62
2021/08/15 11:11:02;;;;;;;;;;;;;;;32.17;28.44;96664.97;5073251;28;19916;-60
2021/08/15 11:13:28;;;;;;;;;;;;;;;32.27;28.85;96668.19;5073890;28;19912;-61
2021/08/15 11:15:53;;;;;;;;;;;;;;;32.01;29.75;96666.91;5073883;28;19916;-60
2021/08/15 11:18:18;;;;;;;;;;;;;;;32.17;29.28;96659.56;5073975;28;20282;-60
2021/08/15 11:20:49;;;;;;;;;;;;;;;32.39;29.08;96651.44;5073814;28;19908;-61
2021/08/15 11:23:16;;;;;;;;;;;;;;;32.43;28.89;96647.31;5073672;28;19966;-61
2021/08/15 11:25:42;;;;;;;;;;;;;;;32.42;29.03;96642.94;5073724;28;19977;-62
2021/08/15 11:28:07;;;;;;;;;;;;;;;32.41;28.59;96638.53;5073562;28;20317;-62
2021/08/15 11:30:33;;;;;;;;;;;;;;;32.38;28.49;96638.94;5073589;28;19912;-59
2021/08/15 11:33:00;;;;;;;;;;;;;;;32.36;28.51;96633.72;5073633;28;20006;-61
2021/08/15 11:35:54;;;;;;;;;;;;;;;31.90;30.20;96641.19;5073589;28;19912;-59
2021/08/15 11:38:20;;;;;;;;;;;;;;;31.77;29.69;96633.78;5071590;28;20323;-60
2021/08/15 11:40:47;;;;;;;;;;;;;;;31.71;29.55;96642.66;5073620;28;19954;-61
2021/08/15 11:43:14;;;;;;;;;;;;;;;31.74;29.09;96633.31;5073384;28;20315;-62
2021/08/15 11:45:42;;;;;;;;;;;;;;;31.87;29.58;96629.91;5073247;28;19959;-62
2021/08/15 11:48:12;;;;;;;;;;;;;;;32.05;28.36;96631.38;5073386;28;19912;-60
2021/08/15 11:50:56;;;;;;;;;;;;;;;32.18;28.21;96631.50;5073499;28;19958;-62
2021/08/15 11:53:23;;;;;;;;;;;;;;;32.38;28.36;96630.81;5073474;28;20007;-61
2021/08/15 11:55:49;;;;;;;;;;;;;;;32.67;27.59;96615.47;5073319;28;19920;-62
2021/08/15 11:58:15;;;;;;;;;;;;;;;32.77;28.18;96618.66;5073303;28;19912;-60
2021/08/15 12:00:40;;;;;;;;;;;;;;;32.94;27.85;96618.34;5073436;28;20262;-60
2021/08/15 12:03:10;;;;;;;;;;;;;;;33.17;26.54;96614.53;5073396;28;19919;-61
2021/08/15 12:05:41;;;;;;;;;;;;;;;33.09;25.40;96623.66;5073474;28;19919;-61
2021/08/15 12:08:11;;;;;;;;;;;;;;;32.63;25.50;96625.00;5073266;28;20290;-60
2021/08/15 12:10:44;;;;;;;;;;;;;;;32.01;26.74;96622.78;5073241;28;19912;-60
2021/08/15 12:13:18;;;;;;;;;;;;;;;31.61;27.42;96621.34;5073333;28;20018;-61
2021/08/15 12:15:45;;;;;;;;;;;;;;;31.45;27.74;96614.28;5073275;28;19912;-59
2021/08/15 12:18:30;;;;;;;;;;;;;;;31.36;27.80;96615.44;5073107;28;19994;-60
2021/08/15 12:21:01;;;;;;;;;;;;;;;31.22;27.23;96609.84;5073815;28;19927;-61
2021/08/15 12:23:28;;;;;;;;;;;;;;;31.19;27.24;96607.50;5077120;28;19916;-62
2021/08/15 12:26:04;;;;;;;;;;;;;;;31.18;28.47;96608.50;5075866;28;19965;-62
2021/08/15 12:28:30;;;;;;;;;;;;;;;30.96;27.78;96607.59;5076993;28;20385;-61
2021/08/15 12:30:56;;;;;;;;;;;;;;;30.92;29.68;96609.84;5077151;28;19912;-62
2021/08/15 12:33:33;;;;;;;;;;;;;;;30.98;29.97;96610.97;5076917;28;19931;-59
2021/08/15 12:36:17;;;;;;;;;;;;;;;31.21;27.65;96604.63;5077082;28;19912;-62
2021/08/15 12:38:42;;;;;;;;;;;;;;;31.31;27.01;96607.88;5076953;28;19934;-61
2021/08/15 12:41:29;;;;;;;;;;;;;;;31.49;26.38;96606.66;5076806;28;19912;-61
2021/08/15 12:44:24;;;;;;;;;;;;;;;31.71;25.72;96598.56;5076929;28;19934;-61
2021/08/15 12:47:16;;;;;;;;;;;;;;;32.12;26.01;96592.53;5031742;28;19952;-59